createdAt,value
2024-02-13T00:17:08.757Z,10.60
2024-02-13T00:27:34.922Z,10.30
2024-02-13T00:37:59.458Z,9.00
2024-02-13T00:48:24.573Z,10.20
2024-02-13T00:58:48.990Z,10.40
2024-02-13T01:09:13.035Z,12.00
2024-02-13T01:19:38.138Z,12.00
2024-02-13T01:30:02.229Z,11.50
2024-02-13T01:40:26.335Z,10.80
2024-02-13T01:50:51.935Z,15.40
2024-02-13T02:11:40.575Z,11.60
2024-02-13T02:22:08.283Z,12.40
2024-02-13T02:32:32.070Z,13.00
2024-02-13T02:43:01.174Z,15.20
2024-02-13T02:53:25.145Z,13.70
2024-02-13T03:03:51.726Z,13.00
2024-02-13T03:14:15.795Z,15.10
2024-02-13T03:24:40.783Z,18.10
2024-02-13T03:35:04.995Z,15.10
2024-02-13T03:45:28.654Z,17.20
2024-02-13T03:55:52.620Z,18.00
2024-02-13T04:06:16.894Z,18.10
2024-02-13T04:16:42.861Z,17.20
2024-02-13T04:27:07.566Z,14.80
2024-02-13T04:37:31.259Z,18.50
2024-02-13T04:47:55.768Z,19.60
2024-02-13T04:58:21.650Z,17.70
2024-02-13T05:19:11.402Z,17.50
2024-02-13T05:29:43.550Z,17.20
2024-02-13T05:40:09.367Z,21.00
2024-02-13T05:50:33.786Z,18.50
2024-02-13T06:00:59.232Z,13.70
2024-02-13T06:11:25.346Z,15.10
2024-02-13T06:21:50.322Z,14.80
2024-02-13T06:32:15.098Z,11.80
2024-02-13T06:42:38.763Z,14.20
2024-02-13T06:53:03.469Z,11.90
2024-02-13T07:03:28.132Z,12.80
2024-02-13T07:13:53.230Z,14.30
2024-02-13T07:24:17.656Z,10.90
2024-02-13T07:34:43.914Z,10.30
2024-02-13T07:45:10.463Z,13.10
2024-02-13T07:55:37.889Z,9.20
2024-02-13T08:06:02.900Z,8.30
2024-02-13T08:16:30.716Z,6.90
2024-02-13T08:26:54.933Z,6.90
2024-02-13T08:37:19.730Z,7.00
2024-02-13T08:47:43.776Z,6.40
2024-02-13T08:58:17.021Z,9.40
2024-02-13T09:08:43.682Z,6.50
2024-02-13T09:19:08.854Z,8.10
2024-02-13T09:29:32.821Z,5.80
2024-02-13T09:39:58.486Z,6.90
2024-02-13T09:50:31.417Z,5.20
2024-02-13T10:00:58.584Z,5.20
2024-02-13T10:11:38.008Z,7.50
2024-02-13T10:22:07.453Z,4.90
2024-02-13T10:32:34.883Z,2.70
2024-02-13T10:43:00.088Z,3.90
2024-02-13T10:53:25.090Z,8.60
2024-02-13T11:03:50.323Z,5.00
2024-02-13T11:14:19.441Z,7.30
2024-02-13T11:25:07.662Z,1.80
2024-02-13T11:35:33.194Z,4.40
2024-02-13T11:46:05.368Z,2.40
2024-02-13T11:56:29.531Z,3.20
2024-02-13T12:06:54.131Z,7.60
2024-02-13T12:17:19.044Z,3.10
2024-02-13T12:27:43.141Z,2.20
2024-02-13T12:38:16.471Z,2.80
2024-02-13T12:48:44.160Z,2.70
2024-02-13T12:59:14.745Z,1.70
2024-02-13T13:09:40.965Z,3.50
2024-02-13T13:20:12.049Z,1.10
2024-02-13T13:30:46.828Z,2.20
2024-02-13T13:41:11.072Z,1.80
2024-02-13T13:51:35.797Z,1.70
2024-02-13T14:01:59.842Z,1.80
2024-02-13T14:12:24.408Z,3.60
2024-02-13T14:22:50.986Z,3.20
2024-02-13T14:33:16.458Z,3.70
2024-02-13T14:43:42.774Z,4.70
2024-02-13T14:54:08.434Z,4.80
2024-02-13T15:04:36.276Z,3.40
2024-02-13T15:15:00.323Z,3.80
2024-02-13T15:25:25.212Z,6.00
2024-02-13T15:36:06.800Z,2.70
2024-02-13T15:46:49.602Z,3.90
2024-02-13T15:57:14.550Z,2.50
2024-02-13T16:07:39.372Z,2.30
2024-02-13T16:18:03.898Z,4.20
2024-02-13T16:28:28.788Z,2.40
2024-02-13T16:38:53.474Z,3.50
2024-02-13T16:49:17.814Z,6.40
2024-02-13T16:59:42.621Z,9.10
2024-02-13T17:10:11.382Z,13.90
2024-02-13T17:20:36.036Z,27.90
2024-02-13T17:31:00.367Z,25.30
2024-02-13T17:41:28.968Z,22.60
2024-02-13T17:51:54.676Z,24.60
2024-02-13T18:02:20.260Z,28.90
2024-02-13T18:23:09.747Z,20.40
2024-02-13T18:33:35.286Z,22.30
2024-02-13T18:44:01.121Z,29.50
2024-02-13T18:54:26.785Z,33.60
2024-02-13T19:04:53.832Z,30.40
2024-02-13T19:15:19.755Z,28.30
2024-02-13T19:36:08.674Z,22.80
2024-02-13T19:46:33.743Z,15.60
2024-02-13T19:56:58.427Z,26.30
2024-02-13T20:07:23.693Z,33.60
2024-02-13T20:17:48.618Z,26.70
2024-02-13T20:28:13.021Z,26.60
2024-02-13T20:38:39.101Z,21.00
2024-02-13T21:05:32.879Z,13.90
2024-02-13T21:16:01.641Z,15.70
2024-02-13T21:26:27.365Z,20.50
2024-02-13T21:36:52.970Z,20.00
2024-02-13T21:47:21.459Z,22.40
2024-02-13T21:57:46.432Z,26.50
2024-02-13T22:08:13.697Z,29.90
2024-02-13T22:18:42.147Z,26.00
2024-02-13T22:29:11.335Z,18.90
2024-02-13T22:39:36.452Z,21.10
2024-02-13T22:50:01.137Z,16.60
2024-02-13T23:00:43.692Z,20.20
2024-02-13T23:11:08.505Z,18.60
2024-02-13T23:21:35.491Z,25.20
2024-02-13T23:31:59.655Z,21.80
2024-02-13T23:42:24.148Z,29.70
2024-02-13T23:52:48.680Z,18.40
